createdAt,value
2019-03-10T00:02:17.062Z,99622.24
2019-03-10T00:04:48.560Z,99616.09
2019-03-10T00:07:20.292Z,99621.03
2019-03-10T00:09:51.938Z,99607.80
2019-03-10T00:12:23.680Z,99618.44
2019-03-10T00:14:57.330Z,99622.92
2019-03-10T00:17:29.243Z,99621.11
2019-03-10T00:20:01.191Z,99617.73
2019-03-10T00:22:33.079Z,99611.23
2019-03-10T00:25:05.021Z,99617.19
2019-03-10T00:27:36.943Z,99629.20
2019-03-10T00:30:09.160Z,99636.27
2019-03-10T00:32:41.073Z,99642.05
2019-03-10T00:35:12.756Z,99634.50
2019-03-10T00:37:44.645Z,99635.73
2019-03-10T00:41:11.751Z,99624.70
2019-03-10T00:44:56.990Z,99625.52
2019-03-10T00:48:27.271Z,99616.48
2019-03-10T00:52:03.920Z,99599.59
2019-03-10T00:54:35.582Z,99596.66
2019-03-10T00:57:07.646Z,99591.94
2019-03-10T00:59:39.305Z,99590.53
2019-03-10T01:02:10.959Z,99582.07
2019-03-10T01:04:42.732Z,99573.83
2019-03-10T01:07:14.415Z,99570.98
2019-03-10T01:09:46.187Z,99563.98
2019-03-10T01:12:17.981Z,99562.16
2019-03-10T01:14:49.769Z,99549.30
2019-03-10T01:17:21.966Z,99551.25
2019-03-10T01:19:53.979Z,99562.41
2019-03-10T01:22:26.535Z,99569.67
2019-03-10T01:24:58.229Z,99563.94
2019-03-10T01:27:29.858Z,99544.58
2019-03-10T01:30:01.588Z,99546.91
2019-03-10T01:33:41.684Z,99541.25
2019-03-10T01:36:16.562Z,99545.52
2019-03-10T01:38:49.449Z,99552.42
2019-03-10T01:41:21.176Z,99549.83
2019-03-10T01:43:53.226Z,99561.44
2019-03-10T01:46:25.041Z,99563.06
2019-03-10T01:48:56.662Z,99572.24
2019-03-10T01:51:28.257Z,99562.30
2019-03-10T01:53:59.864Z,99556.94
2019-03-10T01:56:31.762Z,99563.27
2019-03-10T01:59:03.432Z,99550.47
2019-03-10T02:01:35.502Z,99555.75
2019-03-10T02:04:07.365Z,99562.78
2019-03-10T02:06:39.066Z,99542.38
2019-03-10T02:09:11.013Z,99539.42
2019-03-10T02:11:43.056Z,99535.80
2019-03-10T02:14:14.989Z,99541.63
2019-03-10T02:16:46.683Z,99550.84
2019-03-10T02:19:18.191Z,99546.03
2019-03-10T02:21:49.753Z,99544.34
2019-03-10T02:24:24.008Z,99528.73
2019-03-10T02:26:54.849Z,99533.45
2019-03-10T02:29:26.734Z,99531.88
2019-03-10T02:31:58.484Z,99522.50
2019-03-10T02:34:29.977Z,99515.60
2019-03-10T02:37:02.541Z,99507.23
2019-03-10T02:39:34.216Z,99505.97
2019-03-10T02:42:05.706Z,99501.91
2019-03-10T02:44:40.226Z,99500.64
2019-03-10T02:47:11.934Z,99508.60
2019-03-10T02:49:43.751Z,99507.55
2019-03-10T02:52:15.375Z,99500.16
2019-03-10T02:54:47.162Z,99508.20
2019-03-10T02:57:19.090Z,99509.38
2019-03-10T02:59:50.763Z,99504.45
2019-03-10T03:02:22.693Z,99505.77
2019-03-10T03:04:54.602Z,99512.13
2019-03-10T03:07:26.741Z,99523.39
2019-03-10T03:09:58.275Z,99524.92
2019-03-10T03:12:29.929Z,99526.02
2019-03-10T03:15:01.618Z,99525.41
2019-03-10T03:17:33.604Z,99530.41
2019-03-10T03:20:05.628Z,99534.22
2019-03-10T03:22:37.187Z,99535.36
2019-03-10T03:25:09.724Z,99526.00
2019-03-10T03:27:41.439Z,99527.88
2019-03-10T03:30:14.886Z,99534.23
2019-03-10T03:32:47.009Z,99517.45
2019-03-10T03:35:56.584Z,99508.73
2019-03-10T03:38:57.171Z,99499.81
2019-03-10T03:41:30.953Z,99501.31
2019-03-10T03:44:02.683Z,99493.40
2019-03-10T03:46:34.501Z,99504.70
2019-03-10T03:49:06.252Z,99510.63
2019-03-10T03:51:37.826Z,99512.94
2019-03-10T03:54:10.287Z,99516.14
2019-03-10T03:56:42.046Z,99518.08
2019-03-10T03:59:13.897Z,99518.77
2019-03-10T04:01:55.595Z,99520.26
2019-03-10T04:04:27.354Z,99523.46
2019-03-10T04:06:58.984Z,99518.13
2019-03-10T04:09:30.680Z,99522.39
2019-03-10T04:12:02.398Z,99517.83
2019-03-10T04:14:37.870Z,99513.22
2019-03-10T04:17:09.525Z,99506.41
2019-03-10T04:19:41.152Z,99513.78
2019-03-10T04:22:12.857Z,99515.18
2019-03-10T04:24:48.008Z,99517.84
2019-03-10T04:27:19.655Z,99521.22
2019-03-10T04:29:51.286Z,99528.72
2019-03-10T04:32:22.715Z,99531.04
2019-03-10T04:34:54.420Z,99535.57
2019-03-10T04:37:26.056Z,99536.02
2019-03-10T04:39:57.612Z,99532.55
2019-03-10T04:42:29.322Z,99532.17
2019-03-10T04:45:00.818Z,99534.15
2019-03-10T04:47:32.473Z,99531.31
2019-03-10T04:50:04.726Z,99529.91
2019-03-10T04:52:36.545Z,99528.39
2019-03-10T04:55:30.614Z,99530.98
2019-03-10T04:58:04.827Z,99534.77
2019-03-10T05:00:38.211Z,99525.61
2019-03-10T05:03:09.960Z,99531.04
2019-03-10T05:05:41.531Z,99531.09
2019-03-10T05:08:13.314Z,99527.39
2019-03-10T05:10:44.883Z,99525.44
2019-03-10T05:13:16.356Z,99523.39
2019-03-10T05:15:48.148Z,99513.16
2019-03-10T05:18:19.837Z,99512.00
2019-03-10T05:20:51.559Z,99498.25
2019-03-10T05:23:50.720Z,99501.66
2019-03-10T05:26:22.597Z,99493.84
2019-03-10T05:28:54.157Z,99498.59
2019-03-10T05:31:25.748Z,99496.84
2019-03-10T05:33:57.536Z,99501.02
2019-03-10T05:36:29.303Z,99491.52
2019-03-10T05:39:01.069Z,99482.09
2019-03-10T05:41:32.573Z,99489.87
2019-03-10T05:44:04.329Z,99492.42
2019-03-10T05:46:36.549Z,99483.28
2019-03-10T05:49:08.390Z,99479.62
2019-03-10T05:51:40.074Z,99485.66
2019-03-10T05:54:11.929Z,99484.09
2019-03-10T05:56:44.282Z,99481.98
2019-03-10T05:59:16.426Z,99488.72
2019-03-10T06:01:48.468Z,99496.75
2019-03-10T06:04:20.262Z,99503.08
2019-03-10T06:06:51.799Z,99498.61
2019-03-10T06:09:23.515Z,99493.09
2019-03-10T06:11:55.449Z,99496.69
2019-03-10T06:14:27.102Z,99502.77
2019-03-10T06:16:59.463Z,99490.37
2019-03-10T06:19:31.492Z,99484.23
2019-03-10T06:22:04.280Z,99480.72
2019-03-10T06:24:36.192Z,99477.84
2019-03-10T06:27:08.825Z,99486.73
2019-03-10T06:29:40.396Z,99490.51
2019-03-10T06:32:12.099Z,99495.19
2019-03-10T06:34:43.847Z,99490.41
2019-03-10T06:37:16.236Z,99481.61
2019-03-10T06:39:48.066Z,99477.73
2019-03-10T06:42:19.702Z,99476.27
2019-03-10T06:44:51.770Z,99481.88
2019-03-10T06:47:24.116Z,99475.25
2019-03-10T06:49:55.734Z,99473.79
2019-03-10T06:52:27.385Z,99484.21
2019-03-10T06:54:59.943Z,99480.69
2019-03-10T06:57:33.837Z,99488.16
2019-03-10T07:00:06.321Z,99494.04
2019-03-10T07:02:38.009Z,99516.66
2019-03-10T07:05:11.689Z,99510.69
2019-03-10T07:07:43.733Z,99499.95
2019-03-10T07:10:16.050Z,99509.54
2019-03-10T07:12:47.959Z,99508.04
2019-03-10T07:15:19.626Z,99504.73
2019-03-10T07:17:51.271Z,99497.08
2019-03-10T07:20:22.976Z,99493.83
2019-03-10T07:22:54.903Z,99492.19
2019-03-10T07:25:26.743Z,99483.50
2019-03-10T07:28:20.098Z,99495.53
2019-03-10T07:30:59.714Z,99503.52
2019-03-10T07:33:41.947Z,99506.83
2019-03-10T07:36:28.775Z,99512.55
2019-03-10T07:39:14.965Z,99519.57
2019-03-10T07:42:12.617Z,99513.14
2019-03-10T07:45:03.699Z,99527.45
2019-03-10T07:47:52.976Z,99525.85
2019-03-10T07:50:39.947Z,99532.53
2019-03-10T07:53:24.340Z,99541.42
2019-03-10T07:56:06.880Z,99533.09
2019-03-10T07:58:57.574Z,99543.16
2019-03-10T08:01:51.225Z,99548.83
2019-03-10T08:04:53.897Z,99553.38
2019-03-10T08:07:33.648Z,99551.05
2019-03-10T08:10:23.962Z,99555.16
2019-03-10T08:13:14.035Z,99549.74
2019-03-10T08:16:11.881Z,99551.63
2019-03-10T08:19:22.015Z,99544.59
2019-03-10T08:22:27.832Z,99536.73
2019-03-10T08:25:17.906Z,99537.12
2019-03-10T08:28:17.409Z,99538.12
2019-03-10T08:31:10.700Z,99531.17
2019-03-10T08:34:04.951Z,99516.31
2019-03-10T08:37:04.220Z,99517.66
2019-03-10T08:39:55.844Z,99509.92
2019-03-10T08:42:55.651Z,99526.28
2019-03-10T08:45:45.317Z,99514.59
2019-03-10T08:48:36.846Z,99518.44
2019-03-10T08:51:36.541Z,99525.31
2019-03-10T08:54:19.041Z,99508.52
2019-03-10T08:56:58.821Z,99506.63
2019-03-10T08:59:40.410Z,99506.59
2019-03-10T09:02:40.850Z,99501.77
2019-03-10T09:05:30.172Z,99502.81
2019-03-10T09:08:24.508Z,99507.45
2019-03-10T09:11:06.258Z,99508.11
2019-03-10T09:13:51.424Z,99508.69
2019-03-10T09:16:40.607Z,99502.05
2019-03-10T09:19:30.155Z,99499.72
2019-03-10T09:22:08.501Z,99501.23
2019-03-10T09:24:59.200Z,99508.45
2019-03-10T09:27:50.286Z,99519.70
2019-03-10T09:30:40.003Z,99511.06
2019-03-10T09:33:28.306Z,99507.64
2019-03-10T09:36:31.442Z,99499.30
2019-03-10T09:39:33.551Z,99499.41
2019-03-10T09:42:39.863Z,99506.92
2019-03-10T09:45:29.938Z,99503.00
2019-03-10T09:48:23.748Z,99497.16
2019-03-10T09:51:13.215Z,99491.98
2019-03-10T09:54:03.700Z,99487.43
2019-03-10T09:57:01.038Z,99486.61
2019-03-10T09:59:56.822Z,99486.27
2019-03-10T10:02:59.620Z,99478.25
2019-03-10T10:05:51.257Z,99484.05
2019-03-10T10:09:25.898Z,99474.50
2019-03-10T10:12:13.746Z,99480.43
2019-03-10T10:14:57.634Z,99484.85
2019-03-10T10:17:44.280Z,99485.80
2019-03-10T10:20:37.969Z,99482.87
2019-03-10T10:23:28.050Z,99485.39
2019-03-10T10:26:24.965Z,99465.84
2019-03-10T10:29:30.947Z,99460.79
2019-03-10T10:32:18.153Z,99451.34
2019-03-10T10:35:11.773Z,99452.91
2019-03-10T10:38:18.193Z,99434.57
2019-03-10T10:41:01.554Z,99440.77
2019-03-10T10:43:58.089Z,99444.86
2019-03-10T10:46:49.418Z,99438.96
2019-03-10T10:49:40.310Z,99435.41
2019-03-10T10:52:40.341Z,99437.48
2019-03-10T10:55:39.181Z,99426.19
2019-03-10T10:58:38.810Z,99424.75
2019-03-10T11:01:27.052Z,99418.28
2019-03-10T11:04:30.118Z,99412.50
2019-03-10T11:07:33.167Z,99417.70
2019-03-10T11:10:30.814Z,99407.26
2019-03-10T11:13:19.022Z,99395.30
2019-03-10T11:16:14.174Z,99394.14
2019-03-10T11:19:13.779Z,99394.88
2019-03-10T11:21:58.025Z,99391.52
2019-03-10T11:24:43.488Z,99391.61
2019-03-10T11:27:41.475Z,99401.28
2019-03-10T11:30:33.571Z,99391.64
2019-03-10T11:33:27.592Z,99372.06
2019-03-10T11:36:06.377Z,99372.78
2019-03-10T11:39:03.108Z,99369.13
2019-03-10T11:41:53.823Z,99376.36
2019-03-10T11:44:51.091Z,99362.83
2019-03-10T11:47:50.672Z,99348.54
2019-03-10T11:50:42.894Z,99348.59
2019-03-10T11:53:36.680Z,99350.75
2019-03-10T11:56:37.382Z,99346.26
2019-03-10T11:59:13.548Z,99336.41
2019-03-10T12:02:00.973Z,99318.00
2019-03-10T12:04:44.795Z,99330.08
2019-03-10T12:07:45.296Z,99331.47
2019-03-10T12:10:17.590Z,99322.58
2019-03-10T12:12:49.850Z,99334.29
2019-03-10T12:15:21.744Z,99325.35
2019-03-10T12:17:53.973Z,99306.33
2019-03-10T12:20:26.046Z,99304.91
2019-03-10T12:22:57.981Z,99306.63
2019-03-10T12:25:30.482Z,99306.30
2019-03-10T12:28:03.010Z,99302.83
2019-03-10T12:30:35.099Z,99294.20
2019-03-10T12:33:07.066Z,99285.12
2019-03-10T12:35:39.138Z,99281.73
2019-03-10T12:38:12.973Z,99284.25
2019-03-10T12:40:45.036Z,99280.44
2019-03-10T12:43:17.384Z,99259.77
2019-03-10T12:45:49.756Z,99255.70
2019-03-10T12:48:21.823Z,99258.75
2019-03-10T12:50:54.337Z,99255.94
2019-03-10T12:53:26.280Z,99247.03
2019-03-10T12:55:58.556Z,99244.61
2019-03-10T12:58:30.628Z,99237.88
2019-03-10T13:01:06.675Z,99239.20
2019-03-10T13:03:38.844Z,99233.86
2019-03-10T13:06:10.953Z,99240.09
2019-03-10T13:08:43.540Z,99235.30
2019-03-10T13:11:16.726Z,99216.39
2019-03-10T13:13:48.728Z,99206.55
2019-03-10T13:16:21.235Z,99218.23
2019-03-10T13:18:53.440Z,99222.95
2019-03-10T13:21:27.346Z,99228.78
2019-03-10T13:23:59.639Z,99214.48
2019-03-10T13:26:31.963Z,99222.06
2019-03-10T13:29:04.592Z,99208.05
2019-03-10T13:31:36.629Z,99215.60
2019-03-10T13:34:08.684Z,99235.48
2019-03-10T13:36:41.473Z,99215.84
2019-03-10T13:39:14.077Z,99218.48
2019-03-10T13:41:46.460Z,99215.70
2019-03-10T13:44:18.499Z,99211.06
2019-03-10T13:46:50.718Z,99198.48
2019-03-10T13:49:22.689Z,99201.83
2019-03-10T13:51:55.187Z,99200.08
2019-03-10T13:54:27.377Z,99186.64
2019-03-10T13:57:00.233Z,99196.61
2019-03-10T13:59:32.301Z,99202.53
2019-03-10T14:02:04.358Z,99180.34
2019-03-10T14:04:36.815Z,99186.08
2019-03-10T14:07:10.407Z,99170.14
2019-03-10T14:09:42.699Z,99185.23
2019-03-10T14:12:14.984Z,99175.73
2019-03-10T14:14:47.679Z,99165.86
2019-03-10T14:17:20.357Z,99157.96
2019-03-10T14:19:52.983Z,99172.11
2019-03-10T14:22:25.567Z,99170.14
2019-03-10T14:24:57.866Z,99152.46
2019-03-10T14:27:31.593Z,99159.19
2019-03-10T14:30:05.626Z,99149.03
2019-03-10T14:32:38.526Z,99149.41
2019-03-10T14:35:12.453Z,99139.91
2019-03-10T14:37:46.135Z,99142.78
2019-03-10T14:40:18.938Z,99143.59
2019-03-10T14:42:51.801Z,99156.83
2019-03-10T14:45:26.180Z,99175.81
2019-03-10T14:47:58.555Z,99167.48
2019-03-10T14:50:30.870Z,99152.84
2019-03-10T14:53:04.821Z,99154.16
2019-03-10T14:55:37.048Z,99179.78
2019-03-10T14:58:10.163Z,99160.89
2019-03-10T15:00:42.201Z,99134.59
2019-03-10T15:03:15.025Z,99154.53
2019-03-10T15:05:47.710Z,99140.56
2019-03-10T15:08:20.216Z,99151.08
2019-03-10T15:10:52.739Z,99158.77
2019-03-10T15:13:24.780Z,99152.08
2019-03-10T15:15:58.497Z,99175.02
2019-03-10T15:18:30.440Z,99167.14
2019-03-10T15:21:02.254Z,99154.71
2019-03-10T15:23:34.307Z,99160.47
2019-03-10T15:26:06.786Z,99160.36
2019-03-10T15:28:39.331Z,99154.81
2019-03-10T15:31:11.460Z,99160.80
2019-03-10T15:33:44.609Z,99156.03
2019-03-10T15:36:20.683Z,99145.63
2019-03-10T15:38:51.507Z,99140.63
2019-03-10T15:41:24.562Z,99145.41
2019-03-10T15:43:57.330Z,99131.67
2019-03-10T15:46:29.843Z,99139.77
2019-03-10T15:49:02.871Z,99137.17
2019-03-10T15:51:35.649Z,99146.73
2019-03-10T15:54:09.286Z,99141.11
2019-03-10T15:56:43.309Z,99136.08
2019-03-10T15:59:18.554Z,99135.38
2019-03-10T16:01:51.447Z,99138.63
2019-03-10T16:04:28.089Z,99148.91
2019-03-10T16:07:01.472Z,99136.34
2019-03-10T16:09:35.235Z,99143.66
2019-03-10T16:12:09.165Z,99133.11
2019-03-10T16:14:43.028Z,99132.66
2019-03-10T16:17:17.483Z,99130.52
2019-03-10T16:19:50.635Z,99130.03
2019-03-10T16:22:24.021Z,99133.75
2019-03-10T16:24:57.740Z,99140.21
2019-03-10T16:27:31.135Z,99133.53
2019-03-10T16:30:04.976Z,99136.73
2019-03-10T16:32:39.117Z,99138.65
2019-03-10T16:35:13.610Z,99140.81
2019-03-10T16:37:47.554Z,99144.64
2019-03-10T16:40:21.248Z,99131.50
2019-03-10T16:42:54.712Z,99117.41
2019-03-10T16:45:28.226Z,99113.23
2019-03-10T16:48:02.017Z,99120.30
2019-03-10T16:50:35.953Z,99116.34
2019-03-10T16:53:10.032Z,99130.19
2019-03-10T16:55:43.630Z,99132.94
2019-03-10T16:58:17.578Z,99132.70
2019-03-10T17:00:51.059Z,99131.98
2019-03-10T17:03:24.161Z,99135.42
2019-03-10T17:05:57.984Z,99139.95
2019-03-10T17:08:31.723Z,99129.30
2019-03-10T17:11:05.349Z,99127.08
2019-03-10T17:13:39.538Z,99146.70
2019-03-10T17:16:13.455Z,99154.33
2019-03-10T17:18:47.635Z,99152.77
2019-03-10T17:21:21.971Z,99156.91
2019-03-10T17:23:55.613Z,99156.52
2019-03-10T17:26:29.093Z,99151.73
2019-03-10T17:29:02.393Z,99152.00
2019-03-10T17:31:36.592Z,99148.64
2019-03-10T17:34:10.678Z,99166.54
2019-03-10T17:36:45.209Z,99155.88
2019-03-10T17:39:18.881Z,99172.59
2019-03-10T17:41:52.333Z,99176.28
2019-03-10T17:44:26.488Z,99165.04
2019-03-10T17:47:01.692Z,99165.66
2019-03-10T17:49:38.150Z,99179.01
2019-03-10T17:52:14.744Z,99160.86
2019-03-10T17:54:49.318Z,99174.55
2019-03-10T17:57:23.487Z,99169.66
2019-03-10T17:59:58.427Z,99163.59
2019-03-10T18:02:32.121Z,99163.39
2019-03-10T18:05:06.432Z,99162.36
2019-03-10T18:07:40.485Z,99152.45
2019-03-10T18:10:13.132Z,99156.86
2019-03-10T18:12:46.002Z,99160.56
2019-03-10T18:15:18.491Z,99163.59
2019-03-10T18:17:51.399Z,99156.09
2019-03-10T18:20:24.369Z,99154.34
2019-03-10T18:22:59.214Z,99151.08
2019-03-10T18:25:31.300Z,99141.55
2019-03-10T18:28:06.070Z,99142.22
2019-03-10T18:30:39.087Z,99115.88
2019-03-10T18:33:12.245Z,99124.34
2019-03-10T18:35:45.460Z,99126.23
2019-03-10T18:38:18.330Z,99109.56
2019-03-10T18:40:51.090Z,99120.64
2019-03-10T18:43:25.137Z,99110.63
2019-03-10T18:46:00.055Z,99122.01
2019-03-10T18:48:33.153Z,99119.52
2019-03-10T18:51:05.760Z,99113.85
2019-03-10T18:53:39.379Z,99116.59
2019-03-10T18:56:13.063Z,99117.30
2019-03-10T18:58:46.424Z,99111.31
2019-03-10T19:01:19.040Z,99114.73
2019-03-10T19:03:51.383Z,99109.80
2019-03-10T19:06:24.788Z,99105.42
2019-03-10T19:08:57.809Z,99109.94
2019-03-10T19:11:30.931Z,99107.08
2019-03-10T19:14:03.787Z,99109.21
2019-03-10T19:16:36.207Z,99104.38
2019-03-10T19:19:09.969Z,99101.61
2019-03-10T19:21:43.164Z,99108.11
2019-03-10T19:24:16.061Z,99102.52
2019-03-10T19:26:50.157Z,99104.16
2019-03-10T19:29:22.805Z,99105.88
2019-03-10T19:31:56.211Z,99108.09
2019-03-10T19:34:28.795Z,99105.47
2019-03-10T19:37:01.324Z,99106.87
2019-03-10T19:39:33.697Z,99104.80
2019-03-10T19:42:06.332Z,99101.98
2019-03-10T19:44:38.662Z,99096.59
2019-03-10T19:47:11.360Z,99095.87
2019-03-10T19:49:44.077Z,99090.05
2019-03-10T19:52:18.084Z,99098.69
2019-03-10T19:54:51.161Z,99097.91
2019-03-10T19:57:24.527Z,99100.38
2019-03-10T19:59:56.909Z,99091.66
2019-03-10T20:02:29.608Z,99092.44
2019-03-10T20:05:01.896Z,99097.61
2019-03-10T20:07:34.495Z,99093.10
2019-03-10T20:10:07.200Z,99097.00
2019-03-10T20:12:39.725Z,99087.84
2019-03-10T20:15:15.161Z,99088.16
2019-03-10T20:17:52.419Z,99102.56
2019-03-10T20:20:26.192Z,99100.64
2019-03-10T20:23:00.862Z,99100.35
2019-03-10T20:25:32.446Z,99098.17
2019-03-10T20:28:05.027Z,99088.89
2019-03-10T20:30:38.250Z,99089.03
2019-03-10T20:33:11.130Z,99085.56
2019-03-10T20:35:43.481Z,99084.95
2019-03-10T20:38:16.713Z,99086.66
2019-03-10T20:40:48.688Z,99086.73
2019-03-10T20:43:20.981Z,99091.64
2019-03-10T20:45:53.554Z,99089.48
2019-03-10T20:48:25.933Z,99097.59
2019-03-10T20:50:58.478Z,99092.83
2019-03-10T20:53:32.702Z,99097.34
2019-03-10T20:56:07.704Z,99090.94
2019-03-10T20:58:40.080Z,99089.56
2019-03-10T21:01:12.264Z,99100.51
2019-03-10T21:03:44.682Z,99093.09
2019-03-10T21:06:17.164Z,99093.80
2019-03-10T21:08:49.600Z,99092.83
2019-03-10T21:11:22.296Z,99095.31
2019-03-10T21:13:54.173Z,99081.91
2019-03-10T21:16:26.989Z,99079.15
2019-03-10T21:18:59.159Z,99079.15
2019-03-10T21:21:31.653Z,99075.22
2019-03-10T21:24:04.051Z,99068.80
2019-03-10T21:26:36.174Z,99071.75
2019-03-10T21:29:08.505Z,99069.39
2019-03-10T21:31:40.921Z,99061.83
2019-03-10T21:34:15.380Z,99069.45
2019-03-10T21:36:48.414Z,99057.85
2019-03-10T21:39:20.639Z,99058.55
2019-03-10T21:41:52.986Z,99065.14
2019-03-10T21:44:26.844Z,99060.23
2019-03-10T21:46:59.530Z,99066.45
2019-03-10T21:49:31.647Z,99056.38
2019-03-10T21:52:04.332Z,99061.97
2019-03-10T21:54:37.340Z,99053.04
2019-03-10T21:57:11.942Z,99060.30
2019-03-10T21:59:44.005Z,99053.92
2019-03-10T22:02:17.029Z,99045.17
2019-03-10T22:04:49.112Z,99055.64
2019-03-10T22:07:22.208Z,99051.41
2019-03-10T22:09:54.103Z,99048.87
2019-03-10T22:12:26.574Z,99036.27
2019-03-10T22:14:58.571Z,99035.25
2019-03-10T22:17:30.925Z,99031.09
2019-03-10T22:20:02.994Z,99026.73
2019-03-10T22:22:37.078Z,99031.27
2019-03-10T22:25:12.788Z,99024.23
2019-03-10T22:27:42.398Z,99013.39
2019-03-10T22:30:16.612Z,99021.38
2019-03-10T22:32:48.515Z,99018.09
2019-03-10T22:35:20.800Z,99018.30
2019-03-10T22:37:53.249Z,99026.73
2019-03-10T22:40:25.324Z,99016.15
2019-03-10T22:42:57.421Z,99019.34
2019-03-10T22:45:29.387Z,99013.47
2019-03-10T22:48:02.021Z,99013.09
2019-03-10T22:50:33.906Z,99009.95
2019-03-10T22:53:05.889Z,99002.42
2019-03-10T22:55:38.105Z,98992.09
2019-03-10T22:58:10.049Z,98989.30
2019-03-10T23:00:46.722Z,98989.59
2019-03-10T23:03:18.963Z,98992.97
2019-03-10T23:05:50.869Z,98982.93
2019-03-10T23:08:22.947Z,98984.09
2019-03-10T23:10:54.777Z,98988.17
2019-03-10T23:13:26.956Z,98980.29
2019-03-10T23:15:59.289Z,98989.05
2019-03-10T23:18:31.317Z,98981.05
2019-03-10T23:21:03.363Z,98983.88
2019-03-10T23:23:35.600Z,98970.94
2019-03-10T23:26:07.395Z,98970.63
2019-03-10T23:28:39.495Z,98973.21
2019-03-10T23:31:11.842Z,98964.98
2019-03-10T23:33:44.159Z,98958.77
2019-03-10T23:36:15.890Z,98963.09
2019-03-10T23:38:47.697Z,98961.78
2019-03-10T23:41:19.669Z,98960.22
2019-03-10T23:43:51.860Z,98951.00
2019-03-10T23:46:23.967Z,98951.02
2019-03-10T23:48:56.220Z,98950.77
2019-03-10T23:51:28.278Z,98947.03
2019-03-10T23:54:00.256Z,98957.91
2019-03-10T23:56:32.112Z,98957.77
2019-03-10T23:59:04.083Z,98955.03
